メインページ
METAR-TAF:

METAR-TAF

空港 :

ジョージ・ベスト・ベルファスト・シティ空港

ベルファスト, 北アイルランド

緯度: 54-36N, 経度: 005-53W, 海抜: 5m

現時点の気象観測

当レポートは18分前の16:50(UTC)に作成
南/南西の風 16kt
気温 14°C
湿度 82%
気圧 1026 hPa
視程10km以上
小雨

METAR: EGAC 251650Z AUTO 20016KT 9999 -RA BKN033/// 14/11 Q1026 RERA

時間: 18:08 (17:08 UTC)

予報

当レポートは3時間5分前の14:03(UTC)に作成
予報は25日の 15時(UTC)から 25日の 21時(UTC)まで有効
南/南西の風 17kt、最大31ktの突風を伴う
視程10km以上
高度2500ftの雲はほとんどない
高度4000ftの雲は散在している
25日の 15時(UTC)から 25日の 21時(UTC)まで一時的に
視程: 7000m
小雨, 霧雨, 雨
確率 30% :
25日の 19時(UTC)から 25日の 21時(UTC)まで一時的に
高度1400ftの千切れ雲あり

TAF: EGAC 251403Z 2515/2521 21017G31KT 9999 FEW025 SCT040 TEMPO 2515/2521 7000 -RADZ RA PROB30 TEMPO 2519/2521 BKN014

4,000以上の空港の気象観測と天気予報(METAR報とTAF報)

利用可能な観測所は地図上に黄色い丸と赤い丸で示す。

丸の上にカーソルを重ねると観測所名を参照できる。

次にクリックすると気象観測と天気予報を参照できる。

マップの切り替え:黒色「×」印の緑ボタンをクリックして拡大、「-」印の緑ボタンをクリックして縮小、緑色の三角印をクリックして隣りの地図に切り替え


METAR-TAF: